createdAt,value
2023-01-10T00:03:00.883Z,0.83
2023-01-10T00:08:05.815Z,1.33
2023-01-10T00:13:25.054Z,1.00
2023-01-10T00:18:28.163Z,1.10
2023-01-10T00:23:31.265Z,0.90
2023-01-10T00:28:36.079Z,0.90
2023-01-10T00:33:39.573Z,1.10
2023-01-10T00:38:42.679Z,1.00
2023-01-10T00:43:58.989Z,0.83
2023-01-10T00:49:08.452Z,1.10
2023-01-10T00:54:12.605Z,0.90
2023-01-10T00:59:17.189Z,1.03
2023-01-10T01:04:20.357Z,0.87
2023-01-10T01:09:23.550Z,1.10
2023-01-10T01:14:28.207Z,1.03
2023-01-10T01:19:31.377Z,2.07
2023-01-10T01:24:34.543Z,0.83
2023-01-10T01:29:43.357Z,0.90
2023-01-10T01:34:46.820Z,0.90
2023-01-10T01:39:50.084Z,1.83
2023-01-10T01:45:30.146Z,1.47
2023-01-10T01:50:39.567Z,0.70
2023-01-10T01:55:52.303Z,0.70
2023-01-10T02:00:55.499Z,1.43
2023-01-10T02:06:00.615Z,0.93
2023-01-10T02:11:09.679Z,1.00
2023-01-10T02:16:13.202Z,1.87
2023-01-10T02:21:44.071Z,1.50
2023-01-10T02:27:12.820Z,1.20
2023-01-10T02:32:42.022Z,1.30
2023-01-10T02:38:01.584Z,1.40
2023-01-10T02:43:11.055Z,1.50
2023-01-10T02:48:17.152Z,1.60
2023-01-10T02:53:25.859Z,1.67
2023-01-10T02:58:41.922Z,1.60
2023-01-10T03:03:53.421Z,1.50
2023-01-10T03:09:05.966Z,1.50
2023-01-10T03:14:15.339Z,1.83
2023-01-10T03:19:22.927Z,1.60
2023-01-10T03:24:31.836Z,1.30
2023-01-10T03:29:41.707Z,1.40
2023-01-10T03:34:47.088Z,1.67
2023-01-10T03:39:55.741Z,2.43
2023-01-10T03:45:05.906Z,1.30
2023-01-10T03:50:14.618Z,1.40
2023-01-10T03:55:21.914Z,1.40
2023-01-10T04:00:26.129Z,1.30
2023-01-10T04:05:30.691Z,1.43
2023-01-10T04:10:33.783Z,1.20
2023-01-10T04:15:36.927Z,1.33
2023-01-10T04:20:41.489Z,1.27
2023-01-10T04:25:48.415Z,1.53
2023-01-10T04:30:51.529Z,1.40
2023-01-10T04:35:56.160Z,1.47
2023-01-10T04:40:59.342Z,1.87
2023-01-10T04:46:04.210Z,1.70
2023-01-10T04:51:10.992Z,6.80
2023-01-10T04:56:19.332Z,2.07
2023-01-10T05:01:23.712Z,2.40
2023-01-10T05:06:28.269Z,1.67
2023-01-10T05:11:31.349Z,2.53
2023-01-10T05:16:35.194Z,1.80
2023-01-10T05:21:39.751Z,2.00
2023-01-10T05:26:42.827Z,2.30
2023-01-10T05:31:45.956Z,2.30
2023-01-10T05:36:50.479Z,3.10
2023-01-10T05:41:53.729Z,2.10
2023-01-10T05:46:56.825Z,2.00
2023-01-10T05:52:01.309Z,1.83
2023-01-10T05:57:04.591Z,1.70
2023-01-10T06:02:07.723Z,1.47
2023-01-10T06:07:12.312Z,1.83
2023-01-10T06:12:15.402Z,1.73
2023-01-10T06:17:18.514Z,3.00
2023-01-10T06:22:22.969Z,2.30
2023-01-10T06:27:26.069Z,2.20
2023-01-10T06:32:29.425Z,2.10
2023-01-10T06:37:34.434Z,2.07
2023-01-10T06:42:37.624Z,2.27
2023-01-10T06:47:40.686Z,2.03
2023-01-10T06:52:45.244Z,2.10
2023-01-10T06:57:48.435Z,2.27
2023-01-10T07:02:51.655Z,6.63
2023-01-10T07:07:57.915Z,4.33
2023-01-10T07:13:01.196Z,2.50
2023-01-10T07:18:04.457Z,3.03
2023-01-10T07:23:08.898Z,2.07
2023-01-10T07:28:11.977Z,2.30
2023-01-10T07:33:15.122Z,2.43
2023-01-10T07:38:19.683Z,1.83
2023-01-10T07:43:23.037Z,1.87
2023-01-10T07:48:26.174Z,2.00
2023-01-10T07:53:31.094Z,3.00
2023-01-10T07:58:34.298Z,2.67
2023-01-10T08:03:37.643Z,2.23
2023-01-10T08:08:42.276Z,2.57
2023-01-10T08:13:45.383Z,2.30
2023-01-10T08:18:50.110Z,2.60
2023-01-10T08:23:55.537Z,2.43
2023-01-10T08:28:58.667Z,2.50
2023-01-10T08:34:01.806Z,2.70
2023-01-10T08:39:06.263Z,2.50
2023-01-10T08:44:11.553Z,10.17
2023-01-10T08:49:14.692Z,18.20
2023-01-10T08:54:19.206Z,10.03
2023-01-10T08:59:22.401Z,6.37
2023-01-10T09:04:26.360Z,9.57
2023-01-10T09:09:30.842Z,9.33
2023-01-10T09:14:33.930Z,4.83
2023-01-10T09:19:37.063Z,5.67
2023-01-10T09:24:42.608Z,4.97
2023-01-10T09:29:45.730Z,4.83
2023-01-10T09:34:48.809Z,6.83
2023-01-10T09:39:53.855Z,4.53
2023-01-10T09:45:05.659Z,3.33
2023-01-10T09:50:18.547Z,2.63
2023-01-10T09:55:29.180Z,4.10
2023-01-10T10:00:40.627Z,4.37
2023-01-10T10:05:45.327Z,3.33
2023-01-10T10:11:01.124Z,6.07
2023-01-10T10:16:15.675Z,2.83
2023-01-10T10:21:29.324Z,3.33
2023-01-10T10:26:37.315Z,4.53
2023-01-10T10:32:02.881Z,3.87
2023-01-10T10:37:12.921Z,2.40
2023-01-10T10:42:20.016Z,4.70
2023-01-10T10:47:24.874Z,3.60
2023-01-10T10:52:32.356Z,6.57
2023-01-10T10:57:51.625Z,3.07
2023-01-10T11:03:04.135Z,5.80
2023-01-10T11:08:11.166Z,6.53
2023-01-10T11:13:21.557Z,4.43
2023-01-10T11:18:27.263Z,4.33
2023-01-10T11:23:41.708Z,9.67
2023-01-10T11:28:46.511Z,9.27
2023-01-10T11:33:49.714Z,9.93
2023-01-10T11:39:01.892Z,9.30
2023-01-10T11:44:23.265Z,7.10
2023-01-10T11:49:31.130Z,7.07
2023-01-10T11:54:34.757Z,6.37
2023-01-10T11:59:39.309Z,4.80
2023-01-10T12:04:47.004Z,5.10
2023-01-10T12:09:57.396Z,5.23
2023-01-10T12:15:24.947Z,4.50
2023-01-10T12:20:30.297Z,3.97
2023-01-10T12:25:38.034Z,5.47
2023-01-10T12:30:44.622Z,7.70
2023-01-10T12:35:53.190Z,6.20
2023-01-10T12:41:02.191Z,3.57
2023-01-10T12:46:26.335Z,3.80
2023-01-10T12:51:36.941Z,6.50
2023-01-10T12:56:41.567Z,3.23
2023-01-10T13:01:51.360Z,5.00
2023-01-10T13:06:56.047Z,5.43
2023-01-10T13:12:10.927Z,4.10
2023-01-10T13:17:27.586Z,3.33
2023-01-10T13:22:37.864Z,4.90
2023-01-10T13:27:43.283Z,4.30
2023-01-10T13:33:00.553Z,5.47
2023-01-10T13:38:04.084Z,2.93
2023-01-10T13:43:33.537Z,3.23
2023-01-10T13:48:38.353Z,5.50
2023-01-10T13:53:59.845Z,4.10
2023-01-10T13:59:21.729Z,5.00
2023-01-10T14:04:28.710Z,5.50
2023-01-10T14:09:44.808Z,3.20
2023-01-10T14:14:55.164Z,5.10
2023-01-10T14:20:05.195Z,3.07
2023-01-10T14:25:19.724Z,3.30
2023-01-10T14:30:27.009Z,3.20
2023-01-10T14:35:39.416Z,2.43
2023-01-10T14:40:46.171Z,2.50
2023-01-10T14:45:55.132Z,3.47
2023-01-10T14:51:21.143Z,3.03
2023-01-10T14:56:27.000Z,3.40
2023-01-10T15:01:31.725Z,3.23
2023-01-10T15:06:55.227Z,4.23
2023-01-10T15:12:01.543Z,11.87
2023-01-10T15:17:09.397Z,7.30
2023-01-10T15:22:30.867Z,6.80
2023-01-10T15:27:35.416Z,4.37
2023-01-10T15:32:45.481Z,6.93
2023-01-10T15:37:53.201Z,4.07
2023-01-10T15:43:14.544Z,4.43
2023-01-10T15:48:33.860Z,3.53
2023-01-10T15:54:03.363Z,3.57
2023-01-10T15:59:23.937Z,3.33
2023-01-10T16:04:27.418Z,3.03
2023-01-10T16:09:33.386Z,2.87
2023-01-10T16:14:36.516Z,4.10
2023-01-10T16:19:39.689Z,3.90
2023-01-10T16:24:44.678Z,8.20
2023-01-10T16:29:47.781Z,5.27
2023-01-10T16:34:51.983Z,9.00
2023-01-10T16:39:57.623Z,5.47
2023-01-10T16:45:00.766Z,10.07
2023-01-10T16:50:03.982Z,11.73
2023-01-10T16:55:15.738Z,11.77
2023-01-10T17:00:20.339Z,9.50
2023-01-10T17:05:23.498Z,11.97
2023-01-10T17:10:28.235Z,14.17
2023-01-10T17:15:31.634Z,12.10
2023-01-10T17:20:34.762Z,7.20
2023-01-10T17:25:39.410Z,8.07
2023-01-10T17:30:43.100Z,18.53
2023-01-10T17:35:46.565Z,11.57
2023-01-10T17:40:51.361Z,6.77
2023-01-10T17:45:54.702Z,7.13
2023-01-10T17:50:59.824Z,13.13
2023-01-10T17:56:07.381Z,16.20
2023-01-10T18:01:19.478Z,9.83
2023-01-10T18:06:24.872Z,20.43
2023-01-10T18:11:31.697Z,9.03
2023-01-10T18:16:36.048Z,11.73
2023-01-10T18:21:40.664Z,10.70
2023-01-10T18:26:45.213Z,10.03
2023-01-10T18:31:49.419Z,13.33
2023-01-10T18:36:52.643Z,6.57
2023-01-10T18:41:57.366Z,6.87
2023-01-10T18:47:00.638Z,12.73
2023-01-10T18:52:03.859Z,11.03
2023-01-10T18:57:08.369Z,7.87
2023-01-10T19:02:13.602Z,6.67
2023-01-10T19:07:16.714Z,6.87
2023-01-10T19:12:21.173Z,4.80
2023-01-10T19:17:24.962Z,6.30
2023-01-10T19:22:32.325Z,5.67
2023-01-10T19:27:36.879Z,7.27
2023-01-10T19:32:40.207Z,4.33
2023-01-10T19:37:43.406Z,5.50
2023-01-10T19:42:50.366Z,4.73
2023-01-10T19:47:53.431Z,6.17
2023-01-10T19:52:56.610Z,6.40
2023-01-10T19:58:02.143Z,6.97
2023-01-10T20:03:07.755Z,5.60
2023-01-10T20:08:10.907Z,4.90
2023-01-10T20:13:15.529Z,6.83
2023-01-10T20:18:18.707Z,5.37
2023-01-10T20:23:23.446Z,6.10
2023-01-10T20:28:28.029Z,6.93
2023-01-10T20:33:34.173Z,4.00
2023-01-10T20:38:38.668Z,5.47
2023-01-10T20:43:43.515Z,6.27
2023-01-10T20:48:47.761Z,7.10
2023-01-10T20:53:51.830Z,5.33
2023-01-10T20:58:57.597Z,5.77
2023-01-10T21:04:01.522Z,6.50
2023-01-10T21:09:05.918Z,6.47
2023-01-10T21:14:10.434Z,7.13
2023-01-10T21:19:13.707Z,6.00
2023-01-10T21:24:16.881Z,7.63
2023-01-10T21:29:21.563Z,6.10
2023-01-10T21:34:24.790Z,6.80
2023-01-10T21:39:27.930Z,7.60
2023-01-10T21:44:32.401Z,7.20
2023-01-10T21:49:35.632Z,8.43
2023-01-10T21:54:38.753Z,6.33
2023-01-10T21:59:43.570Z,4.83
2023-01-10T22:04:47.372Z,4.57
2023-01-10T22:09:50.873Z,4.27
2023-01-10T22:14:55.406Z,5.43
2023-01-10T22:19:58.553Z,6.07
2023-01-10T22:25:01.850Z,5.50
2023-01-10T22:30:07.883Z,4.90
2023-01-10T22:35:13.773Z,5.57
2023-01-10T22:40:17.795Z,4.60
2023-01-10T22:45:22.351Z,4.90
2023-01-10T22:50:25.550Z,5.63
2023-01-10T22:55:28.767Z,5.67
2023-01-10T23:00:33.607Z,5.10
2023-01-10T23:05:36.876Z,4.13
2023-01-10T23:10:40.537Z,3.93
2023-01-10T23:15:45.280Z,5.43
2023-01-10T23:20:49.437Z,4.07
2023-01-10T23:26:02.384Z,4.00
2023-01-10T23:31:08.376Z,3.70
2023-01-10T23:36:12.397Z,3.37
2023-01-10T23:41:15.755Z,4.87
2023-01-10T23:46:20.576Z,3.93
2023-01-10T23:51:24.527Z,3.83
2023-01-10T23:56:27.691Z,3.60
